Nearby METAR Reports

 

KSJC - San Jose, California, USA
Distance from station: NE 9mi, 14km
Updated: Thu, 20-Jun-2024 9:53pm PDT
Partly cloudy
Partly cloudy
 Wind from N
Wind: N 8 mph, 13 km/h
Temperature: 57°F, 14°C
Dew Point: 48°F, 9°C
Humidity: 72%
Barometer: 29.88 inHg, 1011.9 hPa
Clouds: Partly cloudy
Visibility: 8 miles, 13 km
Cloud details: Few Clouds 7000 ft
Partly cloudy 7500 ft
2024/06/21 04:53 KSJC 210453Z 35007KT 8SM FEW070 SCT075 14/09 A2988 RMK AO2 SLP117 T01390094
KNUQ - Moffett Nas/Mtn, California, USA
Distance from station: N 9mi, 14km
Updated: Thu, 20-Jun-2024 9:55pm PDT
Overcast
Overcast
 Wind from N
Wind: N 14 mph, 22 km/h
Temperature: 55°F, 13°C
Dew Point: 50°F, 10°C
Humidity: 82%
Barometer: 29.88 inHg, 1011.9 hPa
Clouds: Overcast
Visibility: 10 miles, 16 km
Cloud details: Mostly cloudy 4900 ft
Overcast 5500 ft
2024/06/21 04:55 KNUQ 210455Z AUTO 01012KT 10SM BKN049 OVC055 13/10 A2988 RMK AO2
KPAO - Palo Alto, California, USA
Distance from station: NNW 14mi, 23km
Updated: Thu, 20-Jun-2024 8:47pm PDT
NOT Current
Few Clouds
Few Clouds
 Wind from NNW
Wind: NNW 12 mph, 19 km/h
Temperature: 55°F, 13°C
Dew Point: 48°F, 9°C
Humidity: 77%
Barometer: 29.86 inHg, 1011.2 hPa
Clouds: Few Clouds
Visibility: 10 miles, 16 km
Cloud details: Few Clouds 2000 ft
2024/06/21 03:47 KPAO 210347Z 33010KT 10SM FEW020 13/09 A2986 RMK LAST
 
KRHV - San Jose/Reid, California, USA
Distance from station: ENE 12mi, 19km
Updated: Thu, 20-Jun-2024 9:55pm PDT
Clear
Clear
 Wind from NW
Wind: NW 7 mph, 11 km/h
Temperature: 55°F, 13°C
Dew Point: 48°F, 9°C
Humidity: 77%
Barometer: 29.89 inHg, 1012.2 hPa
Clouds: Clear
Visibility: 10 miles, 16 km
2024/06/21 04:55 KRHV 210455Z 31006KT 10SM SKC 13/09 A2989 RMK LAST
KOAK - Oakland, California, USA
Distance from station: NNW 31mi, 50km
Updated: Thu, 20-Jun-2024 9:53pm PDT
Overcast
Overcast
 Wind from calm
Wind: Calm
Temperature: 55°F, 13°C
Dew Point: 52°F, 11°C
Humidity: 88%
Barometer: 29.88 inHg, 1011.9 hPa
Clouds: Overcast
Visibility: 10 miles, 16 km
Cloud details: Overcast 1000 ft
2024/06/21 04:53 KOAK 210453Z 00000KT 10SM OVC010 13/11 A2988 RMK AO2 SLP119 T01330106
KSQL - San Carlos Airpo, California, USA
Distance from station: NW 21mi, 34km
Updated: Thu, 20-Jun-2024 9:55pm PDT
Clear
Clear
 Wind from WNW
Wind: WNW 10 mph, 17 km/h
Temperature: 54°F, 12°C
Dew Point: 50°F, 10°C
Humidity: 88%
Barometer: 29.89 inHg, 1012.2 hPa
Clouds: Clear
Visibility: 10 miles, 16 km
2024/06/21 04:55 KSQL 210455Z AUTO 30009KT 10SM CLR 12/10 A2989 RMK AO2
 
KSFO - San Francisco, California, USA
Distance from station: NW 30mi, 49km
Updated: Thu, 20-Jun-2024 9:56pm PDT
Overcast
Overcast
 Wind from W
Wind: W 10 mph, 17 km/h
Temperature: 54°F, 12°C
Dew Point: 48°F, 9°C
Humidity: 82%
Barometer: 29.88 inHg, 1011.9 hPa
Clouds: Overcast
Visibility: 10 miles, 16 km
Cloud details: Few Clouds 200 ft
Overcast 800 ft
2024/06/21 04:56 KSFO 210456Z 27009KT 230V290 10SM FEW002 OVC008 12/09 A2988 RMK AO2 SLP119 T01170094
KE16 - San Martin, California, USA
Distance from station: ESE 27mi, 43km
Updated: Thu, 20-Jun-2024 9:55pm PDT
Mostly cloudy
Mostly cloudy
 Wind from SE
Wind: SE 5 mph, 7 km/h
Temperature: 55°F, 13°C
Dew Point: 48°F, 9°C
Humidity: 77%
Barometer: 29.89 inHg, 1012.2 hPa
Clouds: Mostly cloudy
Visibility: 10 miles, 16 km
Cloud details: Partly cloudy 3500 ft
Partly cloudy 4600 ft
Mostly cloudy 5500 ft
2024/06/21 04:55 KE16 210455Z AUTO 14004KT 10SM SCT035 SCT046 BKN055 13/09 A2989 RMK AO2
KWVI - Watsonville, California, USA
Distance from station: SSE 27mi, 44km
Updated: Thu, 20-Jun-2024 9:53pm PDT
Clear
Clear
 Wind from E
Wind: E 8 mph, 13 km/h
Temperature: 54°F, 12°C
Dew Point: 50°F, 10°C
Humidity: 88%
Barometer: 29.89 inHg, 1012.2 hPa
Clouds: Clear
Visibility: 10 miles, 16 km
2024/06/21 04:53 KWVI 210453Z AUTO 09007KT 10SM CLR 12/10 A2989 RMK AO2 SLP120 T01170100
 
KHAF - Half Moon Bay, California, USA
Distance from station: WNW 31mi, 50km
Updated: Thu, 20-Jun-2024 9:55pm PDT
Mist, Overcast
Mist, Overcast
 Wind from NW
Wind: NW 10 mph, 17 km/h
Temperature: 52°F, 11°C
Dew Point: 52°F, 11°C
Humidity: 100%
Barometer: 29.90 inHg, 1012.5 hPa
Summary: Mist
Clouds: Overcast
Visibility: 3 miles, 5 km
Cloud details: Overcast 500 ft
2024/06/21 04:55 KHAF 210455Z AUTO 32009KT 3SM BR OVC005 11/11 A2990 RMK AO2
KHWD - Hayward, California, USA
Distance from station: N 28mi, 44km
Updated: Thu, 20-Jun-2024 9:54pm PDT
Overcast
Overcast
 Wind from W
Wind: W 13 mph, 20 km/h
Temperature: 57°F, 14°C
Dew Point: 48°F, 9°C
Humidity: 72%
Barometer: 29.88 inHg, 1011.9 hPa
Clouds: Overcast
Visibility: 10 miles, 16 km
Cloud details: Overcast 900 ft
2024/06/21 04:54 KHWD 210454Z AUTO 27011KT 10SM OVC009 14/09 A2988 RMK AO2 SLP128 T01390094
KLVK - Livermore, California, USA
Distance from station: NNE 31mi, 51km
Updated: Thu, 20-Jun-2024 9:53pm PDT
Clear
Clear
 Wind from WNW
Wind: WNW 12 mph, 19 km/h
Temperature: 55°F, 13°C
Dew Point: 48°F, 9°C
Humidity: 77%
Barometer: 29.85 inHg, 1010.8 hPa
Clouds: Clear
Visibility: 10 miles, 16 km
2024/06/21 04:53 KLVK 210453Z 30010KT 10SM CLR 13/09 A2985 RMK AO2 SLP104 T01280089 $